»·PEaware :: N419TW KAPV-KRNM

N419TW :: KAPV-KRNM

FLIGHT INFORMATION

Flight Status: Arrived
Operator: Privately registered:
United States
More flights under this callsign
Pilot: Lukas T. (14661)
Aircraft: CIRRUS SR-22 TURBO
(S22T)
More flights by this aircraft type
Origin: KAPV Apple Valley
United States
Destination: KRNM Ramona
United States
More flights between these airports :: More routes between these airports
Route: L22 PSP JLI
File this flight plan on PilotEdge
Remarks:
Altitude:
(Current/Filed)
11,500ft
Speed:
(Current/Filed)
190kts
Departed: 30-Sep-20 07:50 AM
Arrived: 30-Sep-20 08:40 AM
Distance/Time
Traveled:
93nm/0:50
Distance/Time
To Go:
Arrived

Flight Plot

Page will automatically refresh every two minutes.

Flight plan parsing failed; only flown route is shown


Map Options




Map Legend


Flown Route
Filed Route
Departure Airport
Arrival Airport
Navaid (VOR, NDB)
Fix

Horizontal Profiles

Position Reports

Time Latitude Longitude Heading Altitude Ground
Speed
30-Sep-20 07:39 34.574171 -117.189205 269 3065ft 0kts
30-Sep-20 07:40 34.574171 -117.189205 269 3065ft 0kts
30-Sep-20 07:41 34.574171 -117.189205 269 3065ft 0kts
30-Sep-20 07:42 34.574171 -117.189205 269 3065ft 0kts
30-Sep-20 07:43 34.574171 -117.189205 269 3065ft 0kts
30-Sep-20 07:44 34.574171 -117.189205 269 3065ft 0kts
30-Sep-20 07:45 34.574171 -117.189208 268 3065ft 0kts
30-Sep-20 07:46 34.573803 -117.189366 194 3065ft 9kts
30-Sep-20 07:47 34.571777 -117.189254 216 3065ft 11kts
30-Sep-20 07:48 34.571487 -117.188141 21 3065ft 3kts
30-Sep-20 07:49 34.582683 -117.184529 15 3224ft 122kts
30-Sep-20 07:50 34.600423 -117.159099 143 4312ft 118kts
30-Sep-20 07:51 34.568471 -117.161602 181 5015ft 129kts
30-Sep-20 07:52 34.532496 -117.170448 190 5907ft 132kts
30-Sep-20 07:53 34.509518 -117.143908 111 6839ft 127kts
30-Sep-20 07:54 34.494200 -117.103919 111 7660ft 134kts
30-Sep-20 07:55 34.480336 -117.060927 106 8477ft 137kts
30-Sep-20 07:56 34.467208 -117.015222 106 9269ft 143kts
30-Sep-20 07:57 34.454441 -116.968720 106 10091ft 145kts
30-Sep-20 07:58 34.441614 -116.921477 106 10857ft 146kts
30-Sep-20 07:59 34.428796 -116.873691 106 11565ft 150kts
30-Sep-20 08:00 34.414577 -116.819748 106 11580ft 177kts
30-Sep-20 08:01 34.399472 -116.761951 106 11573ft 179kts
30-Sep-20 08:02 34.384282 -116.703766 106 11564ft 180kts
30-Sep-20 08:03 34.368966 -116.645072 106 11552ft 180kts
30-Sep-20 08:04 34.353652 -116.586363 106 11557ft 180kts
30-Sep-20 08:05 34.338394 -116.527865 106 11572ft 179kts
30-Sep-20 08:06 34.323226 -116.469685 106 11592ft 179kts
30-Sep-20 08:07 34.289410 -116.435566 177 11623ft 178kts
30-Sep-20 08:08 34.239185 -116.433245 177 11614ft 179kts
30-Sep-20 08:09 34.188296 -116.430882 177 11573ft 181kts
30-Sep-20 08:10 34.137393 -116.428495 177 11525ft 182kts
30-Sep-20 08:11 34.086016 -116.426067 177 11476ft 182kts
30-Sep-20 08:12 34.034851 -116.423639 177 11500ft 180kts
30-Sep-20 08:13 33.983835 -116.421214 177 11500ft 180kts
30-Sep-20 08:14 33.933031 -116.418790 177 11500ft 181kts
30-Sep-20 08:15 33.881719 -116.416333 177 11499ft 181kts
30-Sep-20 08:16 33.831537 -116.420947 187 11500ft 180kts
30-Sep-20 08:17 33.781647 -116.429381 187 11499ft 180kts
30-Sep-20 08:18 33.730963 -116.437938 187 11493ft 180kts
30-Sep-20 08:19 33.680412 -116.446473 187 11479ft 180kts
30-Sep-20 08:20 33.630453 -116.457886 199 11468ft 179kts
30-Sep-20 08:21 33.581798 -116.475064 193 11462ft 180kts
30-Sep-20 08:22 33.532360 -116.488767 192 11465ft 180kts
30-Sep-20 08:23 33.482675 -116.501469 191 11467ft 180kts
30-Sep-20 08:24 33.433447 -116.513746 191 11470ft 180kts
30-Sep-20 08:25 33.383983 -116.525982 191 11478ft 179kts
30-Sep-20 08:26 33.335553 -116.537895 191 11412ft 184kts
30-Sep-20 08:27 33.279174 -116.551816 191 10258ft 208kts
30-Sep-20 08:28 33.221066 -116.566137 191 9096ft 206kts
30-Sep-20 08:29 33.166232 -116.579626 190 8024ft 202kts
30-Sep-20 08:30 33.133832 -116.607926 245 7330ft 128kts
30-Sep-20 08:31 33.118275 -116.655762 249 6705ft 161kts
30-Sep-20 08:32 33.112899 -116.672651 248 6489ft 156kts
30-Sep-20 08:33 33.087482 -116.716949 222 5485ft 162kts
30-Sep-20 08:34 33.052887 -116.750897 241 4295ft 136kts
30-Sep-20 08:35 33.035124 -116.797639 246 3549ft 158kts
30-Sep-20 08:36 33.029378 -116.848939 277 2573ft 141kts
30-Sep-20 08:37 33.035214 -116.888290 276 1813ft 106kts
30-Sep-20 08:38 33.039343 -116.916602 279 1395ft 46kts
30-Sep-20 08:39 33.040286 -116.919946 11 1395ft 0kts
30-Sep-20 08:40 33.040286 -116.919946 11 1395ft 0kts
30-Sep-20 08:41 33.040406 -116.918885 99 1395ft 8kts
30-Sep-20 08:42 33.041123 -116.917041 109 1395ft 2kts
30-Sep-20 08:43 33.041099 -116.917046 245 1395ft 0kts
30-Sep-20 08:44 33.041099 -116.917046 245 1395ft 0kts

Navigation Log

Ident Type
Flight plan parsing failed, navigation log unavailable